createdAt,value
2024-02-06T00:00:42.268Z,1003.14
2024-02-06T00:01:42.329Z,1003.06
2024-02-06T00:02:42.210Z,1003.08
2024-02-06T00:03:42.187Z,1003.02
2024-02-06T00:04:42.239Z,1003.00
2024-02-06T00:05:42.242Z,1003.08
2024-02-06T00:06:42.214Z,1003.01
2024-02-06T00:07:42.253Z,1002.94
2024-02-06T00:08:42.215Z,1002.92
2024-02-06T00:09:42.116Z,1003.03
2024-02-06T00:10:42.179Z,1002.97
2024-02-06T00:11:42.113Z,1002.95
2024-02-06T00:12:42.046Z,1002.89
2024-02-06T00:13:42.317Z,1003.00
2024-02-06T00:14:42.076Z,1003.03
2024-02-06T00:15:42.059Z,1002.99
2024-02-06T00:16:42.128Z,1002.87
2024-02-06T00:17:42.121Z,1002.97
2024-02-06T00:18:41.976Z,1002.98
2024-02-06T00:19:42.041Z,1002.88
2024-02-06T00:20:42.073Z,1002.84
2024-02-06T00:21:41.929Z,1002.75
2024-02-06T00:22:42.032Z,1002.90
2024-02-06T00:23:42.212Z,1002.78
2024-02-06T00:24:42.946Z,1002.78
2024-02-06T00:25:41.945Z,1002.77
2024-02-06T00:26:41.861Z,1002.86
2024-02-06T00:27:41.844Z,1002.66
2024-02-06T00:28:41.905Z,1002.67
2024-02-06T00:29:41.846Z,1002.91
2024-02-06T00:30:41.845Z,1002.84
2024-02-06T00:31:41.883Z,1002.73
2024-02-06T00:32:41.876Z,1002.71
2024-02-06T00:33:41.936Z,1002.73
2024-02-06T00:34:41.897Z,1002.70
2024-02-06T00:35:42.652Z,1002.66
2024-02-06T00:36:41.828Z,1002.60
2024-02-06T00:37:41.809Z,1002.66
2024-02-06T00:38:41.711Z,1002.65
2024-02-06T00:39:42.409Z,1002.63
2024-02-06T00:40:41.789Z,1002.76
2024-02-06T00:41:41.758Z,1002.76
2024-02-06T00:42:41.692Z,1002.63
2024-02-06T00:43:41.673Z,1002.71
2024-02-06T00:44:41.645Z,1002.68
2024-02-06T00:45:41.627Z,1002.54
2024-02-06T00:46:41.688Z,1002.61
2024-02-06T00:47:41.666Z,1002.47
2024-02-06T00:48:41.672Z,1002.48
2024-02-06T00:49:42.432Z,1002.56
2024-02-06T00:50:42.262Z,1002.55
2024-02-06T00:51:41.799Z,1002.57
2024-02-06T00:52:41.556Z,1002.51
2024-02-06T00:53:41.523Z,1002.51
2024-02-06T00:54:41.527Z,1002.61
2024-02-06T00:55:42.324Z,1002.50
2024-02-06T00:56:41.502Z,1002.42
2024-02-06T00:57:42.490Z,1002.49
2024-02-06T00:58:41.502Z,1002.30
2024-02-06T00:59:41.477Z,1002.30
2024-02-06T01:00:42.228Z,1002.36
2024-02-06T01:01:41.568Z,1002.36
2024-02-06T01:02:41.466Z,1002.38
2024-02-06T01:03:41.628Z,1002.32
2024-02-06T01:04:41.521Z,1002.21
2024-02-06T01:05:42.187Z,1002.31
2024-02-06T01:06:41.410Z,1002.32
2024-02-06T01:07:42.194Z,1002.23
2024-02-06T01:08:41.330Z,1002.15
2024-02-06T01:09:41.333Z,1002.20
2024-02-06T01:10:41.320Z,1002.31
2024-02-06T01:11:41.319Z,1002.22
2024-02-06T01:12:41.317Z,1002.26
2024-02-06T01:13:41.303Z,1002.25
2024-02-06T01:14:41.319Z,1002.31
2024-02-06T01:15:42.217Z,1002.23
2024-02-06T01:16:41.279Z,1002.28
2024-02-06T01:17:41.282Z,1002.21
2024-02-06T01:18:41.385Z,1002.26
2024-02-06T01:19:41.324Z,1002.30
2024-02-06T01:20:41.174Z,1002.36
2024-02-06T01:21:41.196Z,1002.29
2024-02-06T01:22:41.221Z,1002.21
2024-02-06T01:23:41.171Z,1002.27
2024-02-06T01:24:41.117Z,1002.26
2024-02-06T01:25:41.281Z,1002.20
2024-02-06T01:26:41.116Z,1002.18
2024-02-06T01:27:41.071Z,1002.37
2024-02-06T01:28:41.149Z,1002.21
2024-02-06T01:29:41.183Z,1002.10
2024-02-06T01:30:41.060Z,1002.07
2024-02-06T01:31:41.123Z,1002.14
2024-02-06T01:32:41.092Z,1002.17
2024-02-06T01:33:41.072Z,1002.21
2024-02-06T01:34:41.140Z,1002.14
2024-02-06T01:35:41.016Z,1002.08
2024-02-06T01:36:41.001Z,1002.09
2024-02-06T01:37:41.053Z,1002.19
2024-02-06T01:38:40.967Z,1002.10
2024-02-06T01:39:40.947Z,1002.10
2024-02-06T01:40:41.018Z,1002.06
2024-02-06T01:41:40.909Z,1002.11
2024-02-06T01:42:40.905Z,1001.98
2024-02-06T01:43:40.961Z,1002.02
2024-02-06T01:44:40.897Z,1001.98
2024-02-06T01:45:40.852Z,1002.04
2024-02-06T01:46:40.886Z,1001.97
2024-02-06T01:47:40.886Z,1001.96
2024-02-06T01:48:40.877Z,1002.07
2024-02-06T01:49:40.900Z,1001.96
2024-02-06T01:50:40.782Z,1001.97
2024-02-06T01:51:40.807Z,1001.96
2024-02-06T01:52:40.898Z,1001.94
2024-02-06T01:53:40.775Z,1001.91
2024-02-06T01:54:40.761Z,1001.88
2024-02-06T01:55:40.771Z,1001.90
2024-02-06T01:56:40.812Z,1001.90
2024-02-06T01:57:40.743Z,1001.90
2024-02-06T01:58:40.761Z,1001.83
2024-02-06T01:59:40.673Z,1001.84
2024-02-06T02:00:40.814Z,1001.82
2024-02-06T02:01:40.773Z,1001.82
2024-02-06T02:02:40.679Z,1001.76
2024-02-06T02:03:40.701Z,1001.74
2024-02-06T02:04:40.706Z,1001.78
2024-02-06T02:05:40.755Z,1001.68
2024-02-06T02:06:41.512Z,1001.64
2024-02-06T02:07:40.730Z,1001.79
2024-02-06T02:08:40.639Z,1001.86
2024-02-06T02:09:40.534Z,1001.78
2024-02-06T02:10:40.669Z,1001.70
2024-02-06T02:11:40.514Z,1001.69
2024-02-06T02:12:40.487Z,1001.71
2024-02-06T02:13:40.519Z,1001.67
2024-02-06T02:14:40.573Z,1001.62
2024-02-06T02:15:40.466Z,1001.63
2024-02-06T02:16:40.566Z,1001.61
2024-02-06T02:17:40.507Z,1001.64
2024-02-06T02:18:40.476Z,1001.67
2024-02-06T02:19:40.583Z,1001.71
2024-02-06T02:20:40.653Z,1001.69
2024-02-06T02:21:40.373Z,1001.76
2024-02-06T02:22:40.405Z,1001.72
2024-02-06T02:23:40.361Z,1001.69
2024-02-06T02:24:40.342Z,1001.67
2024-02-06T02:25:40.396Z,1001.59
2024-02-06T02:26:40.337Z,1001.63
2024-02-06T02:27:40.333Z,1001.61
2024-02-06T02:28:40.333Z,1001.72
2024-02-06T02:29:40.297Z,1001.68
2024-02-06T02:30:40.286Z,1001.51
2024-02-06T02:31:40.486Z,1001.72
2024-02-06T02:32:40.324Z,1001.63
2024-02-06T02:33:40.318Z,1001.59
2024-02-06T02:34:40.269Z,1001.65
2024-02-06T02:35:40.205Z,1001.63
2024-02-06T02:36:40.173Z,1001.55
2024-02-06T02:37:42.041Z,1001.53
2024-02-06T02:38:40.192Z,1001.49
2024-02-06T02:39:40.188Z,1001.51
2024-02-06T02:40:40.211Z,1001.46
2024-02-06T02:41:40.113Z,1001.41
2024-02-06T02:42:40.111Z,1001.49
2024-02-06T02:43:41.105Z,1001.45
2024-02-06T02:44:40.134Z,1001.49
2024-02-06T02:45:40.121Z,1001.49
2024-02-06T02:46:40.164Z,1001.45
2024-02-06T02:47:40.061Z,1001.45
2024-02-06T02:48:40.091Z,1001.37
2024-02-06T02:49:40.148Z,1001.35
2024-02-06T02:50:40.008Z,1001.37
2024-02-06T02:51:39.997Z,1001.32
2024-02-06T02:52:40.037Z,1001.41
2024-02-06T02:53:39.993Z,1001.37
2024-02-06T02:54:39.980Z,1001.45
2024-02-06T02:55:40.072Z,1001.31
2024-02-06T02:56:39.955Z,1001.41
2024-02-06T02:57:39.912Z,1001.41
2024-02-06T02:58:40.029Z,1001.44
2024-02-06T02:59:39.872Z,1001.38
2024-02-06T03:00:39.868Z,1001.30
2024-02-06T03:01:39.998Z,1001.34
2024-02-06T03:02:39.851Z,1001.31
2024-02-06T03:03:39.872Z,1001.24
2024-02-06T03:04:39.905Z,1001.22
2024-02-06T03:05:39.939Z,1001.29
2024-02-06T03:06:39.830Z,1001.32
2024-02-06T03:07:39.845Z,1001.15
2024-02-06T03:08:39.788Z,1001.19
2024-02-06T03:09:39.768Z,1001.16
2024-02-06T03:10:39.907Z,1001.23
2024-02-06T03:11:39.753Z,1001.21
2024-02-06T03:12:40.654Z,1001.07
2024-02-06T03:13:39.758Z,1001.02
2024-02-06T03:14:40.438Z,1001.05
2024-02-06T03:15:39.728Z,1001.09
2024-02-06T03:16:39.676Z,1001.07
2024-02-06T03:17:40.622Z,1001.11
2024-02-06T03:18:40.690Z,1000.98
2024-02-06T03:19:39.769Z,1001.05
2024-02-06T03:20:39.671Z,1000.94
2024-02-06T03:21:39.635Z,1000.83
2024-02-06T03:22:39.648Z,1000.95
2024-02-06T03:23:39.579Z,1000.86
2024-02-06T03:24:39.582Z,1000.88
2024-02-06T03:25:39.680Z,1000.91
2024-02-06T03:26:39.564Z,1000.84
2024-02-06T03:27:39.553Z,1000.85
2024-02-06T03:28:39.614Z,1000.82
2024-02-06T03:29:41.189Z,1000.86
2024-02-06T03:30:39.510Z,1000.77
2024-02-06T03:31:39.518Z,1000.82
2024-02-06T03:32:39.811Z,1000.86
2024-02-06T03:33:39.660Z,1000.82
2024-02-06T03:34:39.528Z,1000.85
2024-02-06T03:35:39.431Z,1000.76
2024-02-06T03:36:40.340Z,1000.76
2024-02-06T03:37:39.577Z,1000.71
2024-02-06T03:38:39.427Z,1000.73
2024-02-06T03:39:39.384Z,1000.77
2024-02-06T03:40:39.476Z,1000.67
2024-02-06T03:41:39.345Z,1000.81
2024-02-06T03:42:39.344Z,1000.76
2024-02-06T03:43:42.623Z,1000.77
2024-02-06T03:44:39.313Z,1000.75
2024-02-06T03:45:39.321Z,1000.71
2024-02-06T03:46:39.475Z,1000.73
2024-02-06T03:47:39.298Z,1000.67
2024-02-06T03:48:39.423Z,1000.63
2024-02-06T03:49:39.269Z,1000.68
2024-02-06T03:50:39.292Z,1000.67
2024-02-06T03:51:39.214Z,1000.72
2024-02-06T03:52:39.325Z,1000.76
2024-02-06T03:53:39.222Z,1000.70
2024-02-06T03:54:39.215Z,1000.65
2024-02-06T03:55:39.215Z,1000.66
2024-02-06T03:56:39.167Z,1000.64
2024-02-06T03:57:39.153Z,1000.70
2024-02-06T03:58:39.249Z,1000.63
2024-02-06T03:59:39.101Z,1000.64
2024-02-06T04:00:39.157Z,1000.65
2024-02-06T04:01:39.182Z,1000.58
2024-02-06T04:02:39.143Z,1000.70
2024-02-06T04:03:39.119Z,1000.61
2024-02-06T04:04:39.110Z,1000.70
2024-02-06T04:05:39.764Z,1000.70
2024-02-06T04:06:39.971Z,1000.77
2024-02-06T04:07:39.123Z,1000.58
2024-02-06T04:08:39.029Z,1000.67
2024-02-06T04:09:39.041Z,1000.48
2024-02-06T04:10:39.991Z,1000.68
2024-02-06T04:11:39.028Z,1000.82
2024-02-06T04:12:38.941Z,1000.67
2024-02-06T04:13:39.028Z,1000.64
2024-02-06T04:14:38.931Z,1000.64
2024-02-06T04:15:41.821Z,1000.69
2024-02-06T04:16:38.977Z,1000.70
2024-02-06T04:17:38.984Z,1000.70
2024-02-06T04:18:39.754Z,1000.75
2024-02-06T04:19:39.149Z,1000.70
2024-02-06T04:20:38.867Z,1000.78
2024-02-06T04:21:38.831Z,1000.71
2024-02-06T04:22:38.929Z,1000.60
2024-02-06T04:23:39.085Z,1000.61
2024-02-06T04:24:38.823Z,1000.60
2024-02-06T04:25:38.893Z,1000.73
2024-02-06T04:26:38.761Z,1000.63
2024-02-06T04:27:38.826Z,1000.60
2024-02-06T04:28:38.805Z,1000.63
2024-02-06T04:29:38.740Z,1000.52
2024-02-06T04:30:38.757Z,1000.62
2024-02-06T04:31:38.757Z,1000.60
2024-02-06T04:32:38.754Z,1000.55
2024-02-06T04:33:38.834Z,1000.56
2024-02-06T04:34:38.716Z,1000.53
2024-02-06T04:35:38.722Z,1000.52
2024-02-06T04:36:38.682Z,1000.48
2024-02-06T04:37:38.764Z,1000.51
2024-02-06T04:38:38.615Z,1000.41
2024-02-06T04:39:38.597Z,1000.50
2024-02-06T04:40:38.762Z,1000.40
2024-02-06T04:41:38.617Z,1000.39
2024-02-06T04:42:38.570Z,1000.41
2024-02-06T04:43:38.610Z,1000.47
2024-02-06T04:44:38.552Z,1000.39
2024-02-06T04:45:38.562Z,1000.49
2024-02-06T04:46:38.681Z,1000.48
2024-02-06T04:47:38.602Z,1000.46
2024-02-06T04:48:38.557Z,1000.52
2024-02-06T04:49:38.598Z,1000.62
2024-02-06T04:50:38.492Z,1000.52
2024-02-06T04:51:39.185Z,1000.43
2024-02-06T04:52:41.431Z,1000.52
2024-02-06T04:53:39.223Z,1000.49
2024-02-06T04:54:38.426Z,1000.58
2024-02-06T04:55:38.577Z,1000.49
2024-02-06T04:56:38.402Z,1000.55
2024-02-06T04:57:39.576Z,1000.56
2024-02-06T04:58:38.502Z,1000.49
2024-02-06T04:59:38.339Z,1000.48
2024-02-06T05:00:38.393Z,1000.53
2024-02-06T05:01:38.453Z,1000.51
2024-02-06T05:02:38.313Z,1000.39
2024-02-06T05:03:38.345Z,1000.47
2024-02-06T05:04:38.394Z,1000.52
2024-02-06T05:05:38.245Z,1000.51
2024-02-06T05:06:38.405Z,1000.37
2024-02-06T05:07:38.356Z,1000.48
2024-02-06T05:08:38.246Z,1000.53
2024-02-06T05:09:38.207Z,1000.45
2024-02-06T05:10:38.341Z,1000.41
2024-02-06T05:11:38.193Z,1000.39
2024-02-06T05:12:38.193Z,1000.42
2024-02-06T05:13:38.288Z,1000.33
2024-02-06T05:14:38.177Z,1000.29
2024-02-06T05:15:38.129Z,1000.29
2024-02-06T05:16:38.176Z,1000.24
2024-02-06T05:17:38.246Z,1000.30
2024-02-06T05:18:38.250Z,1000.23
2024-02-06T05:19:38.155Z,1000.24
2024-02-06T05:20:38.118Z,1000.25
2024-02-06T05:21:38.086Z,1000.34
2024-02-06T05:22:38.126Z,1000.24
2024-02-06T05:23:38.040Z,1000.39
2024-02-06T05:24:38.030Z,1000.34
2024-02-06T05:25:38.012Z,1000.34
2024-02-06T05:26:39.008Z,1000.19
2024-02-06T05:27:38.734Z,1000.18
2024-02-06T05:28:38.980Z,1000.14
2024-02-06T05:29:38.005Z,1000.21
2024-02-06T05:30:38.842Z,1000.26
2024-02-06T05:31:38.918Z,1000.27
2024-02-06T05:32:37.953Z,1000.18
2024-02-06T05:33:39.602Z,1000.25
2024-02-06T05:34:38.021Z,1000.13
2024-02-06T05:35:37.917Z,1000.23
2024-02-06T05:36:37.872Z,1000.13
2024-02-06T05:37:37.944Z,1000.17
2024-02-06T05:38:37.834Z,1000.18
2024-02-06T05:39:40.394Z,1000.14
2024-02-06T05:40:37.920Z,1000.08
2024-02-06T05:41:37.807Z,1000.02
2024-02-06T05:42:37.778Z,1000.19
2024-02-06T05:43:37.819Z,1000.27
2024-02-06T05:44:37.772Z,999.99
2024-02-06T05:45:37.774Z,1000.08
2024-02-06T05:46:37.827Z,1000.12
2024-02-06T05:47:37.825Z,1000.11
2024-02-06T05:48:40.481Z,1000.04
2024-02-06T05:49:37.828Z,999.98
2024-02-06T05:50:37.878Z,999.95
2024-02-06T05:51:37.687Z,1000.02
2024-02-06T05:52:37.824Z,1000.06
2024-02-06T05:53:37.676Z,1000.05
2024-02-06T05:54:37.671Z,999.99
2024-02-06T05:55:37.651Z,1000.05
2024-02-06T05:56:37.674Z,1000.09
2024-02-06T05:57:37.665Z,1000.00
2024-02-06T05:58:37.703Z,1000.03
2024-02-06T05:59:37.604Z,1000.06
2024-02-06T06:00:38.366Z,1000.07
2024-02-06T06:01:37.692Z,1000.02
2024-02-06T06:02:37.518Z,999.96
2024-02-06T06:03:37.564Z,999.96
2024-02-06T06:04:37.762Z,999.84
2024-02-06T06:05:37.622Z,999.86
2024-02-06T06:06:37.513Z,1000.01
2024-02-06T06:07:37.567Z,999.99
2024-02-06T06:08:37.453Z,1000.03
2024-02-06T06:09:37.430Z,999.87
2024-02-06T06:10:37.492Z,1000.01
2024-02-06T06:11:37.409Z,999.83
2024-02-06T06:12:37.423Z,999.88
2024-02-06T06:13:37.427Z,999.90
2024-02-06T06:14:37.387Z,999.91
2024-02-06T06:15:37.377Z,999.89
2024-02-06T06:16:37.456Z,999.81
2024-02-06T06:17:37.479Z,999.92
2024-02-06T06:18:37.348Z,999.83
2024-02-06T06:19:37.483Z,999.70
2024-02-06T06:20:37.315Z,999.81
2024-02-06T06:21:38.819Z,999.75
2024-02-06T06:22:37.378Z,999.81
2024-02-06T06:23:37.550Z,999.79
2024-02-06T06:24:37.389Z,999.77
2024-02-06T06:25:37.248Z,999.73
2024-02-06T06:26:37.210Z,999.64
2024-02-06T06:27:37.201Z,999.64
2024-02-06T06:28:37.329Z,999.63
2024-02-06T06:29:37.207Z,999.61
2024-02-06T06:30:37.171Z,999.68
2024-02-06T06:31:37.178Z,999.65
2024-02-06T06:32:37.235Z,999.63
2024-02-06T06:33:37.220Z,999.74
2024-02-06T06:34:37.188Z,999.66
2024-02-06T06:35:37.100Z,999.73
2024-02-06T06:36:37.073Z,999.69
2024-02-06T06:37:39.334Z,999.55
2024-02-06T06:38:37.230Z,999.62
2024-02-06T06:39:37.059Z,999.69
2024-02-06T06:40:37.058Z,999.67
2024-02-06T06:41:37.043Z,999.67
2024-02-06T06:42:37.011Z,999.80
2024-02-06T06:43:37.009Z,999.56
2024-02-06T06:44:36.988Z,999.58
2024-02-06T06:45:36.998Z,999.55
2024-02-06T06:46:37.066Z,999.53
2024-02-06T06:47:36.952Z,999.69
2024-02-06T06:48:36.944Z,999.66
2024-02-06T06:49:37.074Z,999.52
2024-02-06T06:50:36.896Z,999.65
2024-02-06T06:51:36.906Z,999.75
2024-02-06T06:52:36.963Z,999.55
2024-02-06T06:53:36.853Z,999.55
2024-02-06T06:54:37.166Z,999.67
2024-02-06T06:55:36.868Z,999.51
2024-02-06T06:56:36.828Z,999.60
2024-02-06T06:57:36.801Z,999.68
2024-02-06T06:58:36.805Z,999.70
2024-02-06T06:59:36.799Z,999.70
2024-02-06T07:00:36.827Z,999.68
2024-02-06T07:01:36.841Z,999.60
2024-02-06T07:02:36.812Z,999.41
2024-02-06T07:03:36.803Z,999.41
2024-02-06T07:04:36.834Z,999.62
2024-02-06T07:05:36.710Z,999.62
2024-02-06T07:06:39.161Z,999.62
2024-02-06T07:07:36.708Z,999.70
2024-02-06T07:08:36.697Z,999.61
2024-02-06T07:09:36.651Z,999.53
2024-02-06T07:10:36.712Z,999.65
2024-02-06T07:11:36.666Z,999.57
2024-02-06T07:12:36.606Z,999.74
2024-02-06T07:13:36.600Z,999.52
2024-02-06T07:14:36.622Z,999.68
2024-02-06T07:15:36.609Z,999.60
2024-02-06T07:16:36.712Z,999.76
2024-02-06T07:17:36.600Z,999.66
2024-02-06T07:18:36.604Z,999.65
2024-02-06T07:19:36.767Z,999.63
2024-02-06T07:20:36.525Z,999.69
2024-02-06T07:21:36.500Z,999.62
2024-02-06T07:22:36.514Z,999.72
2024-02-06T07:23:36.484Z,999.51
2024-02-06T07:24:36.493Z,999.53
2024-02-06T07:25:36.484Z,999.50
2024-02-06T07:26:36.436Z,999.43
2024-02-06T07:27:36.474Z,999.52
2024-02-06T07:28:36.452Z,999.69
2024-02-06T07:29:36.462Z,999.64
2024-02-06T07:30:40.370Z,999.63
2024-02-06T07:31:36.424Z,999.63
2024-02-06T07:32:37.555Z,999.62
2024-02-06T07:33:36.533Z,999.56
2024-02-06T07:34:36.499Z,999.42
2024-02-06T07:35:36.361Z,999.57
2024-02-06T07:36:36.329Z,999.54
2024-02-06T07:37:36.391Z,999.56
2024-02-06T07:38:36.325Z,999.44
2024-02-06T07:39:36.286Z,999.46
2024-02-06T07:40:36.443Z,999.48
2024-02-06T07:41:36.262Z,999.56
2024-02-06T07:42:36.281Z,999.37
2024-02-06T07:43:36.302Z,999.42
2024-02-06T07:44:36.365Z,999.27
2024-02-06T07:45:36.218Z,999.38
2024-02-06T07:46:36.253Z,999.23
2024-02-06T07:47:36.191Z,999.31
2024-02-06T07:48:36.288Z,999.30
2024-02-06T07:49:36.249Z,999.33
2024-02-06T07:50:36.142Z,999.37
2024-02-06T07:51:36.168Z,999.20
2024-02-06T07:52:36.181Z,999.27
2024-02-06T07:53:36.148Z,999.38
2024-02-06T07:54:36.121Z,999.28
2024-02-06T07:55:36.114Z,999.33
2024-02-06T07:56:36.067Z,999.35
2024-02-06T07:57:36.041Z,999.28
2024-02-06T07:58:36.147Z,999.16
2024-02-06T07:59:36.010Z,999.27
2024-02-06T08:00:36.089Z,999.38
2024-02-06T08:01:36.056Z,999.48
2024-02-06T08:02:35.989Z,999.48
2024-02-06T08:03:35.957Z,999.45
2024-02-06T08:04:36.006Z,999.38
2024-02-06T08:05:36.066Z,999.44
2024-02-06T08:06:36.132Z,999.39
2024-02-06T08:07:36.144Z,999.30
2024-02-06T08:08:35.917Z,999.19
2024-02-06T08:09:35.887Z,999.32
2024-02-06T08:10:35.870Z,999.26
2024-02-06T08:11:35.881Z,999.38
2024-02-06T08:12:35.869Z,999.22
2024-02-06T08:13:35.900Z,999.28
2024-02-06T08:14:35.859Z,999.28
2024-02-06T08:15:35.818Z,999.25
2024-02-06T08:16:35.835Z,999.16
2024-02-06T08:17:35.824Z,999.43
2024-02-06T08:18:35.893Z,999.46
2024-02-06T08:19:35.865Z,999.28
2024-02-06T08:20:35.748Z,999.30
2024-02-06T08:21:35.728Z,999.21
2024-02-06T08:22:35.767Z,999.15
2024-02-06T08:23:35.703Z,999.24
2024-02-06T08:24:35.709Z,999.33
2024-02-06T08:25:36.417Z,999.31
2024-02-06T08:26:35.684Z,999.31
2024-02-06T08:27:35.665Z,999.27
2024-02-06T08:28:35.713Z,999.22
2024-02-06T08:29:35.671Z,999.37
2024-02-06T08:30:35.608Z,999.37
2024-02-06T08:31:35.639Z,999.36
2024-02-06T08:32:35.619Z,999.34
2024-02-06T08:33:35.589Z,999.12
2024-02-06T08:34:35.643Z,999.17
2024-02-06T08:35:35.639Z,999.10
2024-02-06T08:36:35.702Z,999.20
2024-02-06T08:37:35.660Z,999.22
2024-02-06T08:38:35.733Z,999.28
2024-02-06T08:39:35.561Z,999.27
2024-02-06T08:40:35.557Z,999.29
2024-02-06T08:41:36.262Z,999.33
2024-02-06T08:42:35.482Z,999.30
2024-02-06T08:43:42.147Z,999.25
2024-02-06T08:44:36.450Z,999.20
2024-02-06T08:45:35.414Z,999.00
2024-02-06T08:46:36.342Z,999.12
2024-02-06T08:47:35.389Z,999.12
2024-02-06T08:48:39.888Z,999.06
2024-02-06T08:49:35.456Z,999.19
2024-02-06T08:50:35.419Z,999.23
2024-02-06T08:51:35.358Z,999.16
2024-02-06T08:52:35.398Z,999.26
2024-02-06T08:53:35.330Z,999.34
2024-02-06T08:54:35.316Z,999.26
2024-02-06T08:55:35.359Z,999.24
2024-02-06T08:56:35.288Z,999.19
2024-02-06T08:57:35.254Z,999.38
2024-02-06T08:58:35.305Z,999.23
2024-02-06T08:59:35.306Z,999.16
2024-02-06T09:00:35.285Z,999.09
2024-02-06T09:01:35.349Z,998.97
2024-02-06T09:02:36.150Z,998.88
2024-02-06T09:03:35.307Z,999.09
2024-02-06T09:04:35.252Z,999.15
2024-02-06T09:05:35.408Z,999.32
2024-02-06T09:06:35.213Z,999.20
2024-02-06T09:07:35.170Z,999.17
2024-02-06T09:08:35.414Z,999.25
2024-02-06T09:09:35.127Z,999.10
2024-02-06T09:10:35.168Z,999.19
2024-02-06T09:11:35.121Z,999.04
2024-02-06T09:12:35.101Z,999.07
2024-02-06T09:13:35.078Z,998.94
2024-02-06T09:14:40.365Z,999.11
2024-02-06T09:15:36.018Z,998.96
2024-02-06T09:16:35.052Z,999.05
2024-02-06T09:17:35.051Z,998.99
2024-02-06T09:18:35.295Z,998.99
2024-02-06T09:19:36.270Z,999.03
2024-02-06T09:20:35.849Z,999.00
2024-02-06T09:21:35.037Z,999.03
2024-02-06T09:22:34.964Z,998.98
2024-02-06T09:23:34.910Z,998.94
2024-02-06T09:24:34.912Z,999.02
2024-02-06T09:25:35.000Z,998.93
2024-02-06T09:26:35.020Z,999.03
2024-02-06T09:27:34.937Z,999.00
2024-02-06T09:28:34.927Z,998.94
2024-02-06T09:29:34.839Z,999.03
2024-02-06T09:30:34.859Z,999.12
2024-02-06T09:31:34.887Z,998.98
2024-02-06T09:32:34.858Z,999.02
2024-02-06T09:33:34.999Z,998.93
2024-02-06T09:34:34.817Z,998.97
2024-02-06T09:35:35.079Z,998.86
2024-02-06T09:36:34.830Z,998.77
2024-02-06T09:37:34.765Z,998.91
2024-02-06T09:38:34.732Z,998.96
2024-02-06T09:39:34.788Z,998.99
2024-02-06T09:40:34.991Z,998.97
2024-02-06T09:41:34.698Z,998.93
2024-02-06T09:42:34.729Z,999.01
2024-02-06T09:43:34.687Z,999.03
2024-02-06T09:44:34.658Z,999.05
2024-02-06T09:45:34.666Z,999.00
2024-02-06T09:46:34.734Z,999.01
2024-02-06T09:47:34.675Z,999.07
2024-02-06T09:48:36.204Z,999.10
2024-02-06T09:49:34.707Z,999.09
2024-02-06T09:50:34.595Z,999.05
2024-02-06T09:51:34.607Z,999.06
2024-02-06T09:52:34.608Z,998.95
2024-02-06T09:53:34.558Z,999.02
2024-02-06T09:54:34.521Z,999.04
2024-02-06T09:55:34.589Z,999.03
2024-02-06T09:56:34.514Z,998.93
2024-02-06T09:57:34.538Z,998.94
2024-02-06T09:58:34.716Z,998.95
2024-02-06T09:59:34.534Z,998.83
2024-02-06T10:00:34.486Z,998.87
2024-02-06T10:01:34.538Z,998.87
2024-02-06T10:02:34.456Z,998.87
2024-02-06T10:03:34.436Z,998.82
2024-02-06T10:04:34.524Z,998.70
2024-02-06T10:05:34.760Z,998.73
2024-02-06T10:06:34.428Z,998.66
2024-02-06T10:07:35.130Z,998.81
2024-02-06T10:08:34.363Z,998.75
2024-02-06T10:09:35.236Z,998.64
2024-02-06T10:10:34.391Z,998.73
2024-02-06T10:11:34.580Z,998.74
2024-02-06T10:12:34.342Z,998.80
2024-02-06T10:13:34.400Z,998.94
2024-02-06T10:14:34.305Z,998.84
2024-02-06T10:15:34.261Z,998.70
2024-02-06T10:16:34.342Z,998.46
2024-02-06T10:17:34.336Z,998.66
2024-02-06T10:18:34.318Z,998.63
2024-02-06T10:19:34.453Z,998.64
2024-02-06T10:20:34.208Z,998.44
2024-02-06T10:21:34.227Z,998.46
2024-02-06T10:22:34.238Z,998.62
2024-02-06T10:23:34.184Z,998.72
2024-02-06T10:24:34.125Z,998.83
2024-02-06T10:25:34.187Z,998.78
2024-02-06T10:26:34.470Z,998.76
2024-02-06T10:27:34.128Z,998.78
2024-02-06T10:28:34.134Z,998.64
2024-02-06T10:29:34.350Z,998.55
2024-02-06T10:30:34.074Z,998.68
2024-02-06T10:31:34.224Z,998.69
2024-02-06T10:32:34.141Z,998.81
2024-02-06T10:33:34.288Z,998.72
2024-02-06T10:34:34.124Z,998.80
2024-02-06T10:35:34.464Z,998.87
2024-02-06T10:36:33.996Z,998.85
2024-02-06T10:37:35.127Z,998.89
2024-02-06T10:38:34.029Z,998.75
2024-02-06T10:39:34.076Z,998.79
2024-02-06T10:40:34.063Z,998.78
2024-02-06T10:41:50.535Z,998.61
2024-02-06T10:43:09.397Z,998.59
2024-02-06T10:43:44.965Z,998.82
2024-02-06T10:44:35.033Z,998.74
2024-02-06T10:45:33.953Z,998.75
2024-02-06T10:46:34.063Z,998.60
2024-02-06T10:47:33.885Z,998.58
2024-02-06T10:48:34.226Z,998.67
2024-02-06T10:49:34.643Z,998.62
2024-02-06T10:50:33.891Z,998.56
2024-02-06T10:51:33.833Z,998.63
2024-02-06T10:52:33.820Z,998.69
2024-02-06T10:53:33.779Z,998.67
2024-02-06T10:54:33.806Z,998.53
2024-02-06T10:55:33.774Z,998.49
2024-02-06T10:56:33.728Z,998.49
2024-02-06T10:57:33.706Z,998.58
2024-02-06T10:58:33.858Z,998.56
2024-02-06T10:59:33.686Z,998.76
2024-02-06T11:00:33.827Z,998.55
2024-02-06T11:01:33.718Z,998.59
2024-02-06T11:02:33.635Z,998.58
2024-02-06T11:03:33.701Z,998.56
2024-02-06T11:04:33.734Z,998.59
2024-02-06T11:05:33.686Z,998.52
2024-02-06T11:06:33.677Z,998.55
2024-02-06T11:07:33.642Z,998.56
2024-02-06T11:08:33.585Z,998.49
2024-02-06T11:09:33.556Z,998.53
2024-02-06T11:10:33.657Z,998.38
2024-02-06T11:11:33.531Z,998.68
2024-02-06T11:12:37.507Z,998.53
2024-02-06T11:13:33.603Z,998.43
2024-02-06T11:14:33.490Z,998.07
2024-02-06T11:15:33.494Z,998.36
2024-02-06T11:16:33.603Z,998.28
2024-02-06T11:17:33.486Z,998.20
2024-02-06T11:18:33.461Z,998.33
2024-02-06T11:19:33.657Z,998.42
2024-02-06T11:20:33.471Z,998.20
2024-02-06T11:21:33.425Z,997.98
2024-02-06T11:22:33.450Z,998.10
2024-02-06T11:23:33.384Z,998.21
2024-02-06T11:24:33.399Z,998.19
2024-02-06T11:25:33.470Z,998.22
2024-02-06T11:26:33.344Z,998.13
2024-02-06T11:27:33.328Z,998.09
2024-02-06T11:28:33.367Z,998.31
2024-02-06T11:29:33.344Z,997.73
2024-02-06T11:30:33.323Z,997.76
2024-02-06T11:31:33.307Z,997.93
2024-02-06T11:32:33.299Z,997.91
2024-02-06T11:33:37.588Z,998.02
2024-02-06T11:34:34.477Z,998.04
2024-02-06T11:35:33.221Z,997.92
2024-02-06T11:36:33.219Z,997.87
2024-02-06T11:37:34.318Z,997.81
2024-02-06T11:38:33.198Z,997.88
2024-02-06T11:39:33.200Z,997.82
2024-02-06T11:40:33.252Z,997.78
2024-02-06T11:41:33.168Z,997.83
2024-02-06T11:42:34.096Z,997.95
2024-02-06T11:43:33.962Z,997.99
2024-02-06T11:44:33.150Z,997.85
2024-02-06T11:45:33.243Z,997.97
2024-02-06T11:46:33.232Z,997.96
2024-02-06T11:47:33.117Z,997.97
2024-02-06T11:48:33.226Z,997.83
2024-02-06T11:49:34.456Z,997.81
2024-02-06T11:50:35.453Z,997.91
2024-02-06T11:51:33.098Z,997.69
2024-02-06T11:52:33.168Z,997.72
2024-02-06T11:53:32.995Z,997.76
2024-02-06T11:54:32.988Z,997.70
2024-02-06T11:55:36.636Z,997.72
2024-02-06T11:56:32.955Z,997.70
2024-02-06T11:57:32.948Z,997.64
2024-02-06T11:58:32.947Z,997.68
2024-02-06T11:59:32.931Z,997.70
2024-02-06T12:00:32.922Z,997.67
2024-02-06T12:01:36.413Z,997.70
2024-02-06T12:02:32.928Z,997.61
2024-02-06T12:03:32.866Z,997.57
2024-02-06T12:04:32.946Z,997.58
2024-02-06T12:05:32.871Z,997.48
2024-02-06T12:06:33.000Z,997.54
2024-02-06T12:07:32.891Z,997.59
2024-02-06T12:08:33.012Z,997.56
2024-02-06T12:09:32.823Z,997.46
2024-02-06T12:10:32.856Z,997.47
2024-02-06T12:11:32.753Z,997.49
2024-02-06T12:12:32.760Z,997.58
2024-02-06T12:13:32.751Z,997.51
2024-02-06T12:14:32.716Z,997.45
2024-02-06T12:15:32.717Z,997.39
2024-02-06T12:16:32.692Z,997.48
2024-02-06T12:17:32.775Z,997.34